sensor_id;sensor_type;location;lat;lon;timestamp;P1;durP1;ratioP1;P2;durP2;ratioP2
3563;SDS011;1796;52.388;13.096;2023-03-30T00:01:36;5.97;;;5.47;;
3563;SDS011;1796;52.388;13.096;2023-03-30T00:04:03;5.93;;;5.33;;
3563;SDS011;1796;52.388;13.096;2023-03-30T00:06:30;5.87;;;5.37;;
3563;SDS011;1796;52.388;13.096;2023-03-30T00:08:59;6.03;;;5.17;;
3563;SDS011;1796;52.388;13.096;2023-03-30T00:11:30;6.67;;;5.57;;
3563;SDS011;1796;52.388;13.096;2023-03-30T00:13:58;7.13;;;5.13;;
3563;SDS011;1796;52.388;13.096;2023-03-30T00:16:25;6.50;;;5.20;;
3563;SDS011;1796;52.388;13.096;2023-03-30T00:18:52;16.60;;;5.70;;
3563;SDS011;1796;52.388;13.096;2023-03-30T00:21:19;10.70;;;5.63;;
3563;SDS011;1796;52.388;13.096;2023-03-30T00:23:46;6.17;;;5.57;;
3563;SDS011;1796;52.388;13.096;2023-03-30T00:26:15;6.23;;;5.17;;
3563;SDS011;1796;52.388;13.096;2023-03-30T00:28:42;11.70;;;5.53;;
3563;SDS011;1796;52.388;13.096;2023-03-30T00:31:09;6.50;;;5.87;;
3563;SDS011;1796;52.388;13.096;2023-03-30T00:33:36;6.70;;;5.80;;
3563;SDS011;1796;52.388;13.096;2023-03-30T00:36:03;8.50;;;6.00;;
3563;SDS011;1796;52.388;13.096;2023-03-30T00:38:30;7.23;;;6.53;;
3563;SDS011;1796;52.388;13.096;2023-03-30T00:40:58;8.90;;;6.37;;
3563;SDS011;1796;52.388;13.096;2023-03-30T00:43:27;7.90;;;6.10;;
3563;SDS011;1796;52.388;13.096;2023-03-30T00:45:54;6.43;;;5.67;;
3563;SDS011;1796;52.388;13.096;2023-03-30T00:48:22;7.50;;;5.90;;
3563;SDS011;1796;52.388;13.096;2023-03-30T00:50:52;6.90;;;6.20;;
3563;SDS011;1796;52.388;13.096;2023-03-30T00:53:21;6.83;;;5.93;;
3563;SDS011;1796;52.388;13.096;2023-03-30T00:55:51;6.10;;;5.50;;
3563;SDS011;1796;52.388;13.096;2023-03-30T00:58:19;8.23;;;6.13;;
3563;SDS011;1796;52.388;13.096;2023-03-30T01:00:49;6.93;;;6.23;;
3563;SDS011;1796;52.388;13.096;2023-03-30T01:03:18;7.23;;;6.20;;
3563;SDS011;1796;52.388;13.096;2023-03-30T01:05:49;7.13;;;6.47;;
3563;SDS011;1796;52.388;13.096;2023-03-30T01:08:17;9.70;;;6.60;;
3563;SDS011;1796;52.388;13.096;2023-03-30T01:10:48;7.13;;;6.10;;
3563;SDS011;1796;52.388;13.096;2023-03-30T01:13:15;7.97;;;6.47;;
3563;SDS011;1796;52.388;13.096;2023-03-30T01:15:47;7.23;;;6.47;;
3563;SDS011;1796;52.388;13.096;2023-03-30T01:18:39;7.20;;;6.17;;
3563;SDS011;1796;52.388;13.096;2023-03-30T01:21:24;8.40;;;5.83;;
3563;SDS011;1796;52.388;13.096;2023-03-30T01:24:24;6.43;;;5.73;;
3563;SDS011;1796;52.388;13.096;2023-03-30T01:27:16;6.63;;;6.00;;
3563;SDS011;1796;52.388;13.096;2023-03-30T01:30:18;13.33;;;6.10;;
3563;SDS011;1796;52.388;13.096;2023-03-30T01:33:07;7.43;;;5.63;;
3563;SDS011;1796;52.388;13.096;2023-03-30T01:36:01;6.83;;;5.77;;
3563;SDS011;1796;52.388;13.096;2023-03-30T01:41:45;7.13;;;6.47;;
3563;SDS011;1796;52.388;13.096;2023-03-30T01:44:19;11.63;;;6.30;;
3563;SDS011;1796;52.388;13.096;2023-03-30T01:46:54;7.03;;;5.30;;
3563;SDS011;1796;52.388;13.096;2023-03-30T01:49:26;6.73;;;6.07;;
3563;SDS011;1796;52.388;13.096;2023-03-30T01:51:58;7.97;;;6.20;;
3563;SDS011;1796;52.388;13.096;2023-03-30T01:54:30;8.67;;;6.07;;
3563;SDS011;1796;52.388;13.096;2023-03-30T01:57:00;6.17;;;5.67;;
3563;SDS011;1796;52.388;13.096;2023-03-30T01:59:32;9.37;;;6.23;;
3563;SDS011;1796;52.388;13.096;2023-03-30T02:02:04;6.97;;;6.03;;
3563;SDS011;1796;52.388;13.096;2023-03-30T02:04:35;7.27;;;6.57;;
3563;SDS011;1796;52.388;13.096;2023-03-30T02:07:06;7.80;;;6.33;;
3563;SDS011;1796;52.388;13.096;2023-03-30T02:09:37;9.43;;;6.10;;
3563;SDS011;1796;52.388;13.096;2023-03-30T02:12:07;7.13;;;6.43;;
3563;SDS011;1796;52.388;13.096;2023-03-30T02:14:35;6.20;;;5.60;;
3563;SDS011;1796;52.388;13.096;2023-03-30T02:17:06;6.20;;;5.60;;
3563;SDS011;1796;52.388;13.096;2023-03-30T02:19:37;7.10;;;6.40;;
3563;SDS011;1796;52.388;13.096;2023-03-30T02:22:06;7.20;;;5.40;;
3563;SDS011;1796;52.388;13.096;2023-03-30T02:24:33;7.07;;;6.37;;
3563;SDS011;1796;52.388;13.096;2023-03-30T02:27:02;7.77;;;6.27;;
3563;SDS011;1796;52.388;13.096;2023-03-30T02:29:30;7.90;;;6.10;;
3563;SDS011;1796;52.388;13.096;2023-03-30T02:32:01;7.00;;;6.00;;
3563;SDS011;1796;52.388;13.096;2023-03-30T02:34:34;5.83;;;5.30;;
3563;SDS011;1796;52.388;13.096;2023-03-30T02:37:16;10.40;;;6.20;;
3563;SDS011;1796;52.388;13.096;2023-03-30T02:40:03;8.17;;;5.97;;
3563;SDS011;1796;52.388;13.096;2023-03-30T02:42:46;11.90;;;5.70;;
3563;SDS011;1796;52.388;13.096;2023-03-30T02:45:26;9.23;;;5.20;;
3563;SDS011;1796;52.388;13.096;2023-03-30T02:48:06;6.27;;;5.67;;
3563;SDS011;1796;52.388;13.096;2023-03-30T02:50:43;7.47;;;5.80;;
3563;SDS011;1796;52.388;13.096;2023-03-30T02:53:18;7.20;;;5.07;;
3563;SDS011;1796;52.388;13.096;2023-03-30T02:55:51;6.27;;;5.67;;
3563;SDS011;1796;52.388;13.096;2023-03-30T02:58:30;5.37;;;4.97;;
3563;SDS011;1796;52.388;13.096;2023-03-30T03:01:03;6.70;;;5.33;;
3563;SDS011;1796;52.388;13.096;2023-03-30T03:03:35;8.03;;;6.63;;
3563;SDS011;1796;52.388;13.096;2023-03-30T03:06:05;8.80;;;5.10;;
3563;SDS011;1796;52.388;13.096;2023-03-30T03:08:36;7.03;;;6.23;;
3563;SDS011;1796;52.388;13.096;2023-03-30T03:11:05;9.07;;;6.30;;
3563;SDS011;1796;52.388;13.096;2023-03-30T03:13:34;7.70;;;6.57;;
3563;SDS011;1796;52.388;13.096;2023-03-30T03:16:02;8.60;;;6.73;;
3563;SDS011;1796;52.388;13.096;2023-03-30T03:18:28;6.90;;;6.30;;
3563;SDS011;1796;52.388;13.096;2023-03-30T03:20:56;5.87;;;5.20;;
3563;SDS011;1796;52.388;13.096;2023-03-30T03:23:22;6.60;;;6.00;;
3563;SDS011;1796;52.388;13.096;2023-03-30T03:25:49;6.33;;;5.83;;
3563;SDS011;1796;52.388;13.096;2023-03-30T03:28:16;6.10;;;5.47;;
3563;SDS011;1796;52.388;13.096;2023-03-30T03:30:44;8.30;;;5.37;;
3563;SDS011;1796;52.388;13.096;2023-03-30T03:33:13;11.60;;;5.40;;
3563;SDS011;1796;52.388;13.096;2023-03-30T03:35:40;7.00;;;5.47;;
3563;SDS011;1796;52.388;13.096;2023-03-30T03:38:09;9.63;;;5.17;;
3563;SDS011;1796;52.388;13.096;2023-03-30T03:40:37;7.87;;;6.13;;
3563;SDS011;1796;52.388;13.096;2023-03-30T03:43:03;5.83;;;5.33;;
3563;SDS011;1796;52.388;13.096;2023-03-30T03:45:30;7.90;;;5.73;;
3563;SDS011;1796;52.388;13.096;2023-03-30T03:47:59;7.30;;;5.63;;
3563;SDS011;1796;52.388;13.096;2023-03-30T03:50:26;7.23;;;6.33;;
3563;SDS011;1796;52.388;13.096;2023-03-30T03:52:52;6.27;;;5.63;;
3563;SDS011;1796;52.388;13.096;2023-03-30T03:55:20;6.57;;;5.27;;
3563;SDS011;1796;52.388;13.096;2023-03-30T03:57:47;7.40;;;5.30;;
3563;SDS011;1796;52.388;13.096;2023-03-30T04:00:14;9.53;;;5.37;;
3563;SDS011;1796;52.388;13.096;2023-03-30T04:02:42;9.70;;;5.53;;
3563;SDS011;1796;52.388;13.096;2023-03-30T04:05:10;6.33;;;4.53;;
3563;SDS011;1796;52.388;13.096;2023-03-30T04:07:37;5.33;;;4.93;;
3563;SDS011;1796;52.388;13.096;2023-03-30T04:10:05;4.90;;;4.53;;
3563;SDS011;1796;52.388;13.096;2023-03-30T04:12:32;7.33;;;5.47;;
3563;SDS011;1796;52.388;13.096;2023-03-30T04:14:59;5.27;;;4.77;;
3563;SDS011;1796;52.388;13.096;2023-03-30T04:17:26;5.60;;;5.13;;
3563;SDS011;1796;52.388;13.096;2023-03-30T04:19:53;6.90;;;4.70;;
3563;SDS011;1796;52.388;13.096;2023-03-30T04:22:22;6.43;;;4.83;;
3563;SDS011;1796;52.388;13.096;2023-03-30T04:24:49;5.60;;;5.20;;
3563;SDS011;1796;52.388;13.096;2023-03-30T04:27:16;6.13;;;5.53;;
3563;SDS011;1796;52.388;13.096;2023-03-30T04:29:43;5.13;;;4.63;;
3563;SDS011;1796;52.388;13.096;2023-03-30T04:32:11;6.50;;;5.83;;
3563;SDS011;1796;52.388;13.096;2023-03-30T04:34:38;6.43;;;5.07;;
3563;SDS011;1796;52.388;13.096;2023-03-30T04:37:07;8.40;;;5.20;;
3563;SDS011;1796;52.388;13.096;2023-03-30T04:39:35;8.00;;;5.10;;
3563;SDS011;1796;52.388;13.096;2023-03-30T04:42:02;9.00;;;5.00;;
3563;SDS011;1796;52.388;13.096;2023-03-30T04:44:30;5.10;;;4.60;;
3563;SDS011;1796;52.388;13.096;2023-03-30T04:46:57;7.00;;;5.43;;
3563;SDS011;1796;52.388;13.096;2023-03-30T04:49:24;9.03;;;5.57;;
3563;SDS011;1796;52.388;13.096;2023-03-30T04:51:51;7.53;;;5.47;;
3563;SDS011;1796;52.388;13.096;2023-03-30T04:54:18;7.17;;;5.30;;
3563;SDS011;1796;52.388;13.096;2023-03-30T04:56:48;6.53;;;4.83;;
3563;SDS011;1796;52.388;13.096;2023-03-30T04:59:15;6.23;;;5.67;;
3563;SDS011;1796;52.388;13.096;2023-03-30T05:01:42;9.23;;;5.43;;
3563;SDS011;1796;52.388;13.096;2023-03-30T05:04:09;5.60;;;5.07;;
3563;SDS011;1796;52.388;13.096;2023-03-30T05:06:36;5.43;;;4.93;;
3563;SDS011;1796;52.388;13.096;2023-03-30T05:09:03;7.60;;;5.90;;
3563;SDS011;1796;52.388;13.096;2023-03-30T05:11:30;9.10;;;5.07;;
3563;SDS011;1796;52.388;13.096;2023-03-30T05:13:58;8.00;;;5.13;;
3563;SDS011;1796;52.388;13.096;2023-03-30T05:16:25;6.00;;;5.27;;
3563;SDS011;1796;52.388;13.096;2023-03-30T05:18:52;6.43;;;5.20;;
3563;SDS011;1796;52.388;13.096;2023-03-30T05:21:20;7.50;;;5.40;;
3563;SDS011;1796;52.388;13.096;2023-03-30T05:23:47;11.63;;;5.50;;
3563;SDS011;1796;52.388;13.096;2023-03-30T05:26:14;7.83;;;5.37;;
3563;SDS011;1796;52.388;13.096;2023-03-30T05:28:41;5.90;;;5.40;;
3563;SDS011;1796;52.388;13.096;2023-03-30T05:31:09;5.67;;;5.10;;
3563;SDS011;1796;52.388;13.096;2023-03-30T05:33:36;9.63;;;4.90;;
3563;SDS011;1796;52.388;13.096;2023-03-30T05:36:03;8.83;;;4.97;;
3563;SDS011;1796;52.388;13.096;2023-03-30T05:38:31;6.77;;;4.97;;
3563;SDS011;1796;52.388;13.096;2023-03-30T05:40:57;8.23;;;5.70;;
3563;SDS011;1796;52.388;13.096;2023-03-30T05:43:24;9.23;;;5.47;;
3563;SDS011;1796;52.388;13.096;2023-03-30T05:45:51;7.77;;;5.63;;
3563;SDS011;1796;52.388;13.096;2023-03-30T05:48:19;9.00;;;5.57;;
3563;SDS011;1796;52.388;13.096;2023-03-30T05:50:46;8.10;;;4.93;;
3563;SDS011;1796;52.388;13.096;2023-03-30T05:53:14;5.67;;;5.00;;
3563;SDS011;1796;52.388;13.096;2023-03-30T05:55:42;5.50;;;5.10;;
3563;SDS011;1796;52.388;13.096;2023-03-30T05:58:09;7.40;;;5.67;;
3563;SDS011;1796;52.388;13.096;2023-03-30T06:00:36;7.20;;;5.43;;
3563;SDS011;1796;52.388;13.096;2023-03-30T06:03:05;8.57;;;5.80;;
3563;SDS011;1796;52.388;13.096;2023-03-30T06:05:35;6.63;;;5.13;;
3563;SDS011;1796;52.388;13.096;2023-03-30T06:08:03;6.00;;;5.10;;
3563;SDS011;1796;52.388;13.096;2023-03-30T06:10:32;8.20;;;4.70;;
3563;SDS011;1796;52.388;13.096;2023-03-30T06:12:59;8.53;;;5.20;;
3563;SDS011;1796;52.388;13.096;2023-03-30T06:15:26;9.80;;;6.27;;
3563;SDS011;1796;52.388;13.096;2023-03-30T06:17:53;9.23;;;5.57;;
3563;SDS011;1796;52.388;13.096;2023-03-30T06:20:21;6.03;;;5.13;;
3563;SDS011;1796;52.388;13.096;2023-03-30T06:22:51;11.40;;;5.27;;
3563;SDS011;1796;52.388;13.096;2023-03-30T06:25:18;7.00;;;5.23;;
3563;SDS011;1796;52.388;13.096;2023-03-30T06:27:45;6.43;;;5.77;;
3563;SDS011;1796;52.388;13.096;2023-03-30T06:30:12;8.23;;;5.80;;
3563;SDS011;1796;52.388;13.096;2023-03-30T06:32:40;6.53;;;5.20;;
3563;SDS011;1796;52.388;13.096;2023-03-30T06:35:07;5.77;;;4.97;;
3563;SDS011;1796;52.388;13.096;2023-03-30T06:37:34;6.33;;;5.73;;
3563;SDS011;1796;52.388;13.096;2023-03-30T06:40:03;19.47;;;5.50;;
3563;SDS011;1796;52.388;13.096;2023-03-30T06:42:37;7.87;;;4.60;;
3563;SDS011;1796;52.388;13.096;2023-03-30T06:45:04;4.80;;;4.33;;
3563;SDS011;1796;52.388;13.096;2023-03-30T06:47:32;4.33;;;3.93;;
3563;SDS011;1796;52.388;13.096;2023-03-30T06:49:59;9.03;;;4.70;;
3563;SDS011;1796;52.388;13.096;2023-03-30T06:52:26;7.57;;;4.90;;
3563;SDS011;1796;52.388;13.096;2023-03-30T06:54:53;11.03;;;4.93;;
3563;SDS011;1796;52.388;13.096;2023-03-30T06:57:21;4.83;;;4.43;;
3563;SDS011;1796;52.388;13.096;2023-03-30T06:59:48;7.30;;;4.57;;
3563;SDS011;1796;52.388;13.096;2023-03-30T07:02:15;7.40;;;4.20;;
3563;SDS011;1796;52.388;13.096;2023-03-30T07:04:42;4.50;;;4.10;;
3563;SDS011;1796;52.388;13.096;2023-03-30T07:07:10;4.13;;;3.80;;
3563;SDS011;1796;52.388;13.096;2023-03-30T07:09:37;4.67;;;4.27;;
3563;SDS011;1796;52.388;13.096;2023-03-30T07:12:04;4.07;;;3.77;;
3563;SDS011;1796;52.388;13.096;2023-03-30T07:14:33;5.50;;;3.67;;
3563;SDS011;1796;52.388;13.096;2023-03-30T07:17:00;4.20;;;3.60;;
3563;SDS011;1796;52.388;13.096;2023-03-30T07:19:27;3.70;;;3.40;;
3563;SDS011;1796;52.388;13.096;2023-03-30T07:21:54;7.73;;;4.73;;
3563;SDS011;1796;52.388;13.096;2023-03-30T07:24:21;8.27;;;4.63;;
3563;SDS011;1796;52.388;13.096;2023-03-30T07:26:48;5.63;;;3.67;;
3563;SDS011;1796;52.388;13.096;2023-03-30T07:29:15;6.93;;;4.10;;
3563;SDS011;1796;52.388;13.096;2023-03-30T07:31:43;17.93;;;3.53;;
3563;SDS011;1796;52.388;13.096;2023-03-30T07:34:10;6.80;;;3.97;;
3563;SDS011;1796;52.388;13.096;2023-03-30T07:36:36;12.87;;;4.67;;
3563;SDS011;1796;52.388;13.096;2023-03-30T07:39:03;6.53;;;3.43;;
3563;SDS011;1796;52.388;13.096;2023-03-30T07:41:32;7.13;;;3.43;;
3563;SDS011;1796;52.388;13.096;2023-03-30T07:43:59;10.27;;;3.77;;
3563;SDS011;1796;52.388;13.096;2023-03-30T07:46:26;7.00;;;4.10;;
3563;SDS011;1796;52.388;13.096;2023-03-30T07:48:54;10.50;;;3.10;;
3563;SDS011;1796;52.388;13.096;2023-03-30T07:51:21;9.27;;;3.97;;
3563;SDS011;1796;52.388;13.096;2023-03-30T07:53:48;11.97;;;3.13;;
3563;SDS011;1796;52.388;13.096;2023-03-30T07:56:15;13.23;;;3.13;;
3563;SDS011;1796;52.388;13.096;2023-03-30T07:58:42;5.87;;;3.47;;
3563;SDS011;1796;52.388;13.096;2023-03-30T08:01:09;5.30;;;2.60;;
3563;SDS011;1796;52.388;13.096;2023-03-30T08:03:37;6.80;;;3.03;;
3563;SDS011;1796;52.388;13.096;2023-03-30T08:06:06;5.70;;;2.37;;
3563;SDS011;1796;52.388;13.096;2023-03-30T08:08:35;11.33;;;3.90;;
3563;SDS011;1796;52.388;13.096;2023-03-30T08:11:05;9.30;;;3.20;;
3563;SDS011;1796;52.388;13.096;2023-03-30T08:13:33;4.13;;;2.23;;
3563;SDS011;1796;52.388;13.096;2023-03-30T08:16:01;3.33;;;2.73;;
3563;SDS011;1796;52.388;13.096;2023-03-30T08:18:28;6.10;;;2.90;;
3563;SDS011;1796;52.388;13.096;2023-03-30T08:20:55;6.93;;;3.47;;
3563;SDS011;1796;52.388;13.096;2023-03-30T08:23:23;8.77;;;3.40;;
3563;SDS011;1796;52.388;13.096;2023-03-30T08:25:51;7.37;;;2.43;;
3563;SDS011;1796;52.388;13.096;2023-03-30T08:28:21;7.60;;;2.83;;
3563;SDS011;1796;52.388;13.096;2023-03-30T08:30:48;8.67;;;2.50;;
3563;SDS011;1796;52.388;13.096;2023-03-30T08:33:15;4.17;;;2.63;;
3563;SDS011;1796;52.388;13.096;2023-03-30T08:35:42;9.30;;;2.60;;
3563;SDS011;1796;52.388;13.096;2023-03-30T08:38:10;5.23;;;2.40;;
3563;SDS011;1796;52.388;13.096;2023-03-30T08:40:43;15.27;;;2.40;;
3563;SDS011;1796;52.388;13.096;2023-03-30T08:43:14;6.10;;;2.47;;
3563;SDS011;1796;52.388;13.096;2023-03-30T08:45:55;7.33;;;2.50;;
3563;SDS011;1796;52.388;13.096;2023-03-30T08:48:25;9.20;;;3.80;;
3563;SDS011;1796;52.388;13.096;2023-03-30T08:50:55;4.33;;;2.40;;
3563;SDS011;1796;52.388;13.096;2023-03-30T08:53:23;7.30;;;2.40;;
3563;SDS011;1796;52.388;13.096;2023-03-30T08:55:55;5.63;;;2.50;;
3563;SDS011;1796;52.388;13.096;2023-03-30T08:58:28;5.23;;;2.67;;
3563;SDS011;1796;52.388;13.096;2023-03-30T09:01:07;7.17;;;2.60;;
3563;SDS011;1796;52.388;13.096;2023-03-30T09:03:41;7.83;;;2.60;;
3563;SDS011;1796;52.388;13.096;2023-03-30T09:06:17;11.40;;;2.93;;
3563;SDS011;1796;52.388;13.096;2023-03-30T09:08:52;4.50;;;2.30;;
3563;SDS011;1796;52.388;13.096;2023-03-30T09:11:22;7.80;;;2.40;;
3563;SDS011;1796;52.388;13.096;2023-03-30T09:13:56;9.27;;;3.23;;
3563;SDS011;1796;52.388;13.096;2023-03-30T09:16:28;10.23;;;2.37;;
3563;SDS011;1796;52.388;13.096;2023-03-30T09:19:00;8.17;;;2.27;;
3563;SDS011;1796;52.388;13.096;2023-03-30T09:21:30;3.87;;;2.93;;
3563;SDS011;1796;52.388;13.096;2023-03-30T09:23:57;5.10;;;2.40;;
3563;SDS011;1796;52.388;13.096;2023-03-30T09:26:34;10.47;;;2.60;;
3563;SDS011;1796;52.388;13.096;2023-03-30T09:29:08;3.70;;;2.20;;
3563;SDS011;1796;52.388;13.096;2023-03-30T09:31:42;8.97;;;2.53;;
3563;SDS011;1796;52.388;13.096;2023-03-30T09:34:14;7.30;;;2.50;;
3563;SDS011;1796;52.388;13.096;2023-03-30T09:36:51;7.20;;;3.20;;
3563;SDS011;1796;52.388;13.096;2023-03-30T09:39:23;5.33;;;2.30;;
3563;SDS011;1796;52.388;13.096;2023-03-30T09:41:55;13.20;;;2.83;;
3563;SDS011;1796;52.388;13.096;2023-03-30T09:44:33;25.73;;;3.40;;
3563;SDS011;1796;52.388;13.096;2023-03-30T09:47:01;9.73;;;3.20;;
3563;SDS011;1796;52.388;13.096;2023-03-30T09:49:40;6.93;;;2.60;;
3563;SDS011;1796;52.388;13.096;2023-03-30T09:52:07;11.43;;;2.30;;
3563;SDS011;1796;52.388;13.096;2023-03-30T09:54:44;8.10;;;2.70;;
3563;SDS011;1796;52.388;13.096;2023-03-30T09:57:22;5.33;;;2.77;;
3563;SDS011;1796;52.388;13.096;2023-03-30T09:59:51;4.70;;;2.67;;
3563;SDS011;1796;52.388;13.096;2023-03-30T10:02:19;14.53;;;2.47;;
3563;SDS011;1796;52.388;13.096;2023-03-30T10:04:58;5.27;;;2.37;;
3563;SDS011;1796;52.388;13.096;2023-03-30T10:07:28;6.90;;;2.00;;
3563;SDS011;1796;52.388;13.096;2023-03-30T10:09:58;9.20;;;2.50;;
3563;SDS011;1796;52.388;13.096;2023-03-30T10:12:28;4.70;;;2.50;;
3563;SDS011;1796;52.388;13.096;2023-03-30T10:14:56;8.03;;;3.17;;
3563;SDS011;1796;52.388;13.096;2023-03-30T10:17:26;5.50;;;2.73;;
3563;SDS011;1796;52.388;13.096;2023-03-30T10:22:47;5.60;;;2.73;;
3563;SDS011;1796;52.388;13.096;2023-03-30T10:25:17;6.53;;;2.60;;
3563;SDS011;1796;52.388;13.096;2023-03-30T10:27:47;12.90;;;2.67;;
3563;SDS011;1796;52.388;13.096;2023-03-30T10:30:17;5.20;;;2.90;;
3563;SDS011;1796;52.388;13.096;2023-03-30T10:32:45;4.20;;;2.53;;
3563;SDS011;1796;52.388;13.096;2023-03-30T10:35:13;5.30;;;2.83;;
3563;SDS011;1796;52.388;13.096;2023-03-30T10:37:45;4.73;;;2.47;;
3563;SDS011;1796;52.388;13.096;2023-03-30T10:40:15;8.83;;;2.83;;
3563;SDS011;1796;52.388;13.096;2023-03-30T10:42:46;6.13;;;2.80;;
3563;SDS011;1796;52.388;13.096;2023-03-30T10:45:19;6.77;;;2.40;;
3563;SDS011;1796;52.388;13.096;2023-03-30T10:47:55;5.50;;;2.90;;
3563;SDS011;1796;52.388;13.096;2023-03-30T10:50:31;8.43;;;2.67;;
3563;SDS011;1796;52.388;13.096;2023-03-30T10:53:06;10.30;;;2.80;;
3563;SDS011;1796;52.388;13.096;2023-03-30T10:55:41;5.70;;;2.60;;
3563;SDS011;1796;52.388;13.096;2023-03-30T10:58:19;11.47;;;3.23;;
3563;SDS011;1796;52.388;13.096;2023-03-30T11:01:01;3.67;;;2.30;;
3563;SDS011;1796;52.388;13.096;2023-03-30T11:03:37;9.43;;;2.97;;
3563;SDS011;1796;52.388;13.096;2023-03-30T11:06:07;12.70;;;3.43;;
3563;SDS011;1796;52.388;13.096;2023-03-30T11:08:39;8.17;;;3.20;;
3563;SDS011;1796;52.388;13.096;2023-03-30T11:11:09;8.27;;;2.80;;
3563;SDS011;1796;52.388;13.096;2023-03-30T11:13:42;9.60;;;3.10;;
3563;SDS011;1796;52.388;13.096;2023-03-30T11:16:13;7.97;;;2.73;;
3563;SDS011;1796;52.388;13.096;2023-03-30T11:18:46;4.63;;;2.20;;
3563;SDS011;1796;52.388;13.096;2023-03-30T11:21:18;14.33;;;3.47;;
3563;SDS011;1796;52.388;13.096;2023-03-30T11:23:50;7.20;;;2.97;;
3563;SDS011;1796;52.388;13.096;2023-03-30T11:26:21;7.20;;;2.90;;
3563;SDS011;1796;52.388;13.096;2023-03-30T11:28:58;10.33;;;2.90;;
3563;SDS011;1796;52.388;13.096;2023-03-30T11:31:34;9.93;;;3.20;;
3563;SDS011;1796;52.388;13.096;2023-03-30T11:34:13;5.53;;;3.40;;
3563;SDS011;1796;52.388;13.096;2023-03-30T11:36:48;14.83;;;2.80;;
3563;SDS011;1796;52.388;13.096;2023-03-30T11:39:22;6.80;;;2.60;;
3563;SDS011;1796;52.388;13.096;2023-03-30T11:41:54;6.83;;;2.87;;
3563;SDS011;1796;52.388;13.096;2023-03-30T11:44:30;5.33;;;2.90;;
3563;SDS011;1796;52.388;13.096;2023-03-30T11:46:58;12.73;;;3.07;;
3563;SDS011;1796;52.388;13.096;2023-03-30T11:49:36;10.73;;;2.80;;
3563;SDS011;1796;52.388;13.096;2023-03-30T11:52:18;9.70;;;2.53;;
3563;SDS011;1796;52.388;13.096;2023-03-30T11:55:01;7.33;;;2.97;;
3563;SDS011;1796;52.388;13.096;2023-03-30T11:57:51;7.80;;;2.93;;
3563;SDS011;1796;52.388;13.096;2023-03-30T12:00:32;9.40;;;3.07;;
3563;SDS011;1796;52.388;13.096;2023-03-30T12:03:11;11.47;;;2.43;;
3563;SDS011;1796;52.388;13.096;2023-03-30T12:05:45;9.93;;;2.90;;
3563;SDS011;1796;52.388;13.096;2023-03-30T12:08:19;9.17;;;3.20;;
3563;SDS011;1796;52.388;13.096;2023-03-30T12:11:04;4.17;;;2.43;;
3563;SDS011;1796;52.388;13.096;2023-03-30T12:13:37;4.90;;;2.43;;
3563;SDS011;1796;52.388;13.096;2023-03-30T12:16:08;8.87;;;2.80;;
3563;SDS011;1796;52.388;13.096;2023-03-30T12:18:40;11.27;;;2.80;;
3563;SDS011;1796;52.388;13.096;2023-03-30T12:21:20;11.43;;;3.20;;
3563;SDS011;1796;52.388;13.096;2023-03-30T12:23:55;10.43;;;3.20;;
3563;SDS011;1796;52.388;13.096;2023-03-30T12:26:30;10.40;;;2.70;;
3563;SDS011;1796;52.388;13.096;2023-03-30T12:29:06;8.30;;;2.97;;
3563;SDS011;1796;52.388;13.096;2023-03-30T12:34:44;8.03;;;2.70;;
3563;SDS011;1796;52.388;13.096;2023-03-30T12:37:11;7.87;;;2.90;;
3563;SDS011;1796;52.388;13.096;2023-03-30T12:39:42;6.37;;;2.73;;
3563;SDS011;1796;52.388;13.096;2023-03-30T12:42:14;5.40;;;2.40;;
3563;SDS011;1796;52.388;13.096;2023-03-30T12:44:53;3.67;;;2.60;;
3563;SDS011;1796;52.388;13.096;2023-03-30T12:47:49;14.83;;;3.20;;
3563;SDS011;1796;52.388;13.096;2023-03-30T12:50:50;13.40;;;3.27;;
3563;SDS011;1796;52.388;13.096;2023-03-30T12:56:41;9.83;;;3.10;;
3563;SDS011;1796;52.388;13.096;2023-03-30T12:59:28;9.10;;;3.80;;
3563;SDS011;1796;52.388;13.096;2023-03-30T13:02:19;13.53;;;3.27;;
3563;SDS011;1796;52.388;13.096;2023-03-30T13:05:27;9.80;;;3.33;;
3563;SDS011;1796;52.388;13.096;2023-03-30T13:08:07;6.50;;;2.80;;
3563;SDS011;1796;52.388;13.096;2023-03-30T13:10:56;5.73;;;3.10;;
3563;SDS011;1796;52.388;13.096;2023-03-30T13:13:58;13.13;;;3.67;;
3563;SDS011;1796;52.388;13.096;2023-03-30T13:20:28;7.53;;;3.10;;
3563;SDS011;1796;52.388;13.096;2023-03-30T13:36:43;12.70;;;4.30;;
3563;SDS011;1796;52.388;13.096;2023-03-30T13:39:23;4.93;;;2.73;;
3563;SDS011;1796;52.388;13.096;2023-03-30T13:42:01;10.63;;;2.40;;
3563;SDS011;1796;52.388;13.096;2023-03-30T13:44:42;8.83;;;3.47;;
3563;SDS011;1796;52.388;13.096;2023-03-30T13:47:24;6.30;;;2.20;;
3563;SDS011;1796;52.388;13.096;2023-03-30T13:50:01;6.23;;;2.37;;
3563;SDS011;1796;52.388;13.096;2023-03-30T13:52:33;6.20;;;2.50;;
3563;SDS011;1796;52.388;13.096;2023-03-30T13:55:15;5.40;;;2.60;;
3563;SDS011;1796;52.388;13.096;2023-03-30T13:57:45;12.43;;;2.97;;
3563;SDS011;1796;52.388;13.096;2023-03-30T14:00:21;5.77;;;2.43;;
3563;SDS011;1796;52.388;13.096;2023-03-30T14:02:57;11.40;;;2.67;;
3563;SDS011;1796;52.388;13.096;2023-03-30T14:05:25;5.37;;;2.63;;
3563;SDS011;1796;52.388;13.096;2023-03-30T14:07:54;9.70;;;2.63;;
3563;SDS011;1796;52.388;13.096;2023-03-30T14:10:23;8.50;;;3.23;;
3563;SDS011;1796;52.388;13.096;2023-03-30T14:12:52;4.40;;;3.20;;
3563;SDS011;1796;52.388;13.096;2023-03-30T14:15:24;14.37;;;2.97;;
3563;SDS011;1796;52.388;13.096;2023-03-30T14:17:57;6.33;;;2.77;;
3563;SDS011;1796;52.388;13.096;2023-03-30T14:20:29;9.13;;;3.40;;
3563;SDS011;1796;52.388;13.096;2023-03-30T14:23:10;8.37;;;3.80;;
3563;SDS011;1796;52.388;13.096;2023-03-30T14:25:42;13.33;;;3.00;;
3563;SDS011;1796;52.388;13.096;2023-03-30T14:28:12;6.47;;;2.87;;
3563;SDS011;1796;52.388;13.096;2023-03-30T14:30:47;7.77;;;3.20;;
3563;SDS011;1796;52.388;13.096;2023-03-30T14:33:15;5.07;;;2.97;;
3563;SDS011;1796;52.388;13.096;2023-03-30T14:35:43;8.70;;;3.40;;
3563;SDS011;1796;52.388;13.096;2023-03-30T14:38:13;11.03;;;2.77;;
3563;SDS011;1796;52.388;13.096;2023-03-30T14:40:43;12.37;;;3.13;;
3563;SDS011;1796;52.388;13.096;2023-03-30T14:43:12;5.50;;;2.93;;
3563;SDS011;1796;52.388;13.096;2023-03-30T14:45:41;15.87;;;3.20;;
3563;SDS011;1796;52.388;13.096;2023-03-30T14:48:20;8.90;;;2.67;;
3563;SDS011;1796;52.388;13.096;2023-03-30T14:50:59;5.07;;;2.93;;
3563;SDS011;1796;52.388;13.096;2023-03-30T14:53:27;6.67;;;3.00;;
3563;SDS011;1796;52.388;13.096;2023-03-30T14:55:57;6.20;;;2.50;;
3563;SDS011;1796;52.388;13.096;2023-03-30T14:58:26;7.37;;;3.17;;
3563;SDS011;1796;52.388;13.096;2023-03-30T15:00:55;10.60;;;2.80;;
3563;SDS011;1796;52.388;13.096;2023-03-30T15:03:25;5.03;;;2.60;;
3563;SDS011;1796;52.388;13.096;2023-03-30T15:05:55;15.57;;;3.50;;
3563;SDS011;1796;52.388;13.096;2023-03-30T15:08:25;20.60;;;8.40;;
3563;SDS011;1796;52.388;13.096;2023-03-30T15:10:56;21.93;;;11.33;;
3563;SDS011;1796;52.388;13.096;2023-03-30T15:13:30;13.63;;;6.27;;
3563;SDS011;1796;52.388;13.096;2023-03-30T15:16:00;8.57;;;4.80;;
3563;SDS011;1796;52.388;13.096;2023-03-30T15:18:28;8.00;;;3.17;;
3563;SDS011;1796;52.388;13.096;2023-03-30T15:20:57;7.20;;;2.90;;
3563;SDS011;1796;52.388;13.096;2023-03-30T15:23:25;5.20;;;2.57;;
3563;SDS011;1796;52.388;13.096;2023-03-30T15:25:59;18.03;;;3.50;;
3563;SDS011;1796;52.388;13.096;2023-03-30T15:28:29;8.20;;;4.27;;
3563;SDS011;1796;52.388;13.096;2023-03-30T15:30:59;4.77;;;3.20;;
3563;SDS011;1796;52.388;13.096;2023-03-30T15:33:28;6.60;;;3.57;;
3563;SDS011;1796;52.388;13.096;2023-03-30T15:36:02;7.13;;;3.70;;
3563;SDS011;1796;52.388;13.096;2023-03-30T15:38:32;7.30;;;3.77;;
3563;SDS011;1796;52.388;13.096;2023-03-30T15:41:01;15.57;;;3.83;;
3563;SDS011;1796;52.388;13.096;2023-03-30T15:43:35;6.90;;;3.90;;
3563;SDS011;1796;52.388;13.096;2023-03-30T15:46:03;4.80;;;3.33;;
3563;SDS011;1796;52.388;13.096;2023-03-30T15:48:34;5.03;;;3.27;;
3563;SDS011;1796;52.388;13.096;2023-03-30T15:51:04;5.90;;;3.20;;
3563;SDS011;1796;52.388;13.096;2023-03-30T15:53:38;7.23;;;4.20;;
3563;SDS011;1796;52.388;13.096;2023-03-30T15:56:11;4.00;;;2.87;;